createdAt,value
2022-09-21T00:01:18.628Z,79.28
2022-09-21T00:03:46.234Z,78.75
2022-09-21T00:06:19.078Z,78.83
2022-09-21T00:08:46.550Z,78.45
2022-09-21T00:11:15.638Z,78.06
2022-09-21T00:13:45.885Z,78.33
2022-09-21T00:16:14.092Z,78.90
2022-09-21T00:18:40.796Z,77.97
2022-09-21T00:21:09.995Z,77.10
2022-09-21T00:23:37.891Z,76.81
2022-09-21T00:26:24.876Z,76.15
2022-09-21T00:28:59.802Z,76.18
2022-09-21T00:31:27.578Z,75.19
2022-09-21T00:33:54.443Z,75.32
2022-09-21T00:36:23.757Z,76.17
2022-09-21T00:38:53.143Z,76.78
2022-09-21T00:41:20.007Z,76.96
2022-09-21T00:44:08.513Z,76.93
2022-09-21T00:46:39.154Z,76.58
2022-09-21T00:49:06.079Z,76.37
2022-09-21T00:51:32.782Z,75.96
2022-09-21T00:54:08.017Z,76.59
2022-09-21T00:56:37.007Z,76.18
2022-09-21T00:59:04.723Z,76.52
2022-09-21T01:01:31.602Z,76.70
2022-09-21T01:03:58.500Z,76.46
2022-09-21T01:06:26.855Z,76.04
2022-09-21T01:08:59.139Z,76.39
2022-09-21T01:11:55.170Z,75.81
2022-09-21T01:14:40.445Z,75.95
2022-09-21T01:17:33.379Z,76.46
2022-09-21T01:20:06.138Z,76.37
2022-09-21T01:23:14.408Z,77.54
2022-09-21T01:26:05.188Z,77.24
2022-09-21T01:28:41.783Z,78.37
2022-09-21T01:31:15.833Z,78.13
2022-09-21T01:33:54.740Z,79.09
2022-09-21T01:36:26.257Z,78.30
2022-09-21T01:38:58.864Z,78.52
2022-09-21T01:41:29.296Z,79.07
2022-09-21T01:44:08.571Z,78.48
2022-09-21T01:46:37.301Z,79.22
2022-09-21T01:49:13.391Z,78.96
2022-09-21T01:51:46.870Z,78.21
2022-09-21T01:54:21.895Z,77.34
2022-09-21T01:56:55.641Z,77.74
2022-09-21T01:59:43.167Z,77.65
2022-09-21T02:02:15.842Z,77.45
2022-09-21T02:04:42.955Z,77.17
2022-09-21T02:07:09.903Z,77.64
2022-09-21T02:09:37.879Z,77.15
2022-09-21T02:12:05.666Z,77.20
2022-09-21T02:14:34.129Z,76.71
2022-09-21T02:17:18.892Z,76.57
2022-09-21T02:19:54.421Z,76.44
2022-09-21T02:22:36.227Z,76.75
2022-09-21T02:25:12.005Z,76.96
2022-09-21T02:27:41.320Z,76.41
2022-09-21T02:30:20.029Z,76.95
2022-09-21T02:33:13.348Z,76.75
2022-09-21T02:35:50.405Z,76.63
2022-09-21T02:38:47.059Z,76.54
2022-09-21T02:41:27.861Z,76.91
2022-09-21T02:44:11.143Z,77.29
2022-09-21T02:46:43.615Z,76.28
2022-09-21T02:49:19.681Z,77.31
2022-09-21T02:51:50.843Z,77.09
2022-09-21T02:54:22.729Z,77.15
2022-09-21T02:56:51.552Z,77.09
2022-09-21T02:59:18.613Z,77.10
2022-09-21T03:01:45.301Z,77.27
2022-09-21T03:04:12.038Z,76.55
2022-09-21T03:06:38.779Z,77.20
2022-09-21T03:09:05.385Z,77.07
2022-09-21T03:11:32.061Z,77.49
2022-09-21T03:14:00.554Z,77.06
2022-09-21T03:16:27.114Z,77.04
2022-09-21T03:18:53.720Z,77.54
2022-09-21T03:21:20.339Z,77.59
2022-09-21T03:23:46.936Z,77.32
2022-09-21T03:26:13.472Z,77.65
2022-09-21T03:28:40.135Z,77.35
2022-09-21T03:31:07.083Z,77.10
2022-09-21T03:33:33.705Z,77.53
2022-09-21T03:36:00.277Z,77.61
2022-09-21T03:38:27.062Z,78.13
2022-09-21T03:40:57.865Z,77.86
2022-09-21T03:43:25.300Z,78.28
2022-09-21T03:45:52.242Z,78.41
2022-09-21T03:48:20.098Z,78.56
2022-09-21T03:50:46.639Z,78.78
2022-09-21T03:53:13.386Z,79.09
2022-09-21T03:55:40.160Z,79.58
2022-09-21T03:58:06.846Z,78.66
2022-09-21T04:00:34.202Z,78.85
2022-09-21T04:03:02.171Z,78.95
2022-09-21T04:05:29.058Z,79.04
2022-09-21T04:07:56.851Z,79.15
2022-09-21T04:10:33.229Z,78.93
2022-09-21T04:13:02.136Z,79.57
2022-09-21T04:15:29.590Z,79.29
2022-09-21T04:17:56.548Z,79.38
2022-09-21T04:20:23.638Z,79.55
2022-09-21T04:22:51.577Z,79.35
2022-09-21T04:25:18.420Z,79.87
2022-09-21T04:27:45.084Z,79.52
2022-09-21T04:30:14.184Z,79.71
2022-09-21T04:32:40.867Z,79.44
2022-09-21T04:35:07.950Z,80.21
2022-09-21T04:37:34.661Z,80.70
2022-09-21T04:40:01.580Z,80.82
2022-09-21T04:42:28.486Z,80.81
2022-09-21T04:44:56.231Z,80.50
2022-09-21T04:47:23.714Z,81.14
2022-09-21T04:49:50.443Z,80.65
2022-09-21T04:52:19.101Z,80.52
2022-09-21T04:54:46.550Z,80.72
2022-09-21T04:57:14.172Z,80.43
2022-09-21T04:59:40.735Z,79.87
2022-09-21T05:02:07.347Z,80.87
2022-09-21T05:04:33.894Z,80.52
2022-09-21T05:07:00.493Z,80.47
2022-09-21T05:09:45.797Z,80.83
2022-09-21T05:12:12.439Z,81.18
2022-09-21T05:14:39.249Z,81.02
2022-09-21T05:17:05.949Z,80.73
2022-09-21T05:19:32.539Z,80.87
2022-09-21T05:21:59.296Z,80.42
2022-09-21T05:24:28.067Z,81.04
2022-09-21T05:26:54.719Z,80.81
2022-09-21T05:29:21.815Z,80.20
2022-09-21T05:31:54.088Z,80.23
2022-09-21T05:34:48.441Z,80.46
2022-09-21T05:37:43.194Z,80.60
2022-09-21T05:40:12.693Z,80.00
2022-09-21T05:42:39.863Z,80.15
2022-09-21T05:45:08.341Z,80.54
2022-09-21T05:47:58.545Z,80.01
2022-09-21T05:50:34.581Z,79.84
2022-09-21T05:53:24.421Z,79.90
2022-09-21T05:56:03.036Z,79.53
2022-09-21T05:58:37.457Z,79.50
2022-09-21T06:01:22.980Z,79.79
2022-09-21T06:03:50.320Z,79.59
2022-09-21T06:06:19.115Z,79.65
2022-09-21T06:08:45.975Z,79.81
2022-09-21T06:11:13.984Z,79.46
2022-09-21T06:13:41.769Z,79.29
2022-09-21T06:16:08.890Z,78.95
2022-09-21T06:18:40.316Z,78.71
2022-09-21T06:21:08.235Z,78.70
2022-09-21T06:23:35.307Z,78.44
2022-09-21T06:26:02.225Z,78.35
2022-09-21T06:28:29.833Z,78.38
2022-09-21T06:30:58.294Z,77.96
2022-09-21T06:33:26.750Z,78.48
2022-09-21T06:35:55.546Z,77.99
2022-09-21T06:38:22.772Z,77.33
2022-09-21T06:40:50.479Z,76.69
2022-09-21T06:43:17.517Z,76.35
2022-09-21T06:45:44.595Z,76.25
2022-09-21T06:48:11.216Z,76.21
2022-09-21T06:50:39.150Z,75.91
2022-09-21T06:53:05.707Z,75.83
2022-09-21T06:55:32.764Z,75.08
2022-09-21T06:58:04.011Z,75.09
2022-09-21T07:00:31.274Z,74.97
2022-09-21T07:02:58.177Z,74.53
2022-09-21T07:05:25.073Z,74.12
2022-09-21T07:07:56.830Z,73.85
2022-09-21T07:10:23.677Z,73.48
2022-09-21T07:12:51.702Z,73.19
2022-09-21T07:15:21.578Z,72.45
2022-09-21T07:17:52.363Z,73.73
2022-09-21T07:20:19.561Z,71.09
2022-09-21T07:22:46.195Z,71.41
2022-09-21T07:25:12.831Z,72.75
2022-09-21T07:27:39.477Z,70.86
2022-09-21T07:30:07.368Z,69.62
2022-09-21T07:32:34.297Z,70.35
2022-09-21T07:35:01.039Z,70.01
2022-09-21T07:37:28.833Z,70.79
2022-09-21T07:39:55.492Z,70.75
2022-09-21T07:42:22.955Z,70.74
2022-09-21T07:44:50.942Z,70.78
2022-09-21T07:47:17.813Z,69.76
2022-09-21T07:49:45.830Z,70.94
2022-09-21T07:52:12.465Z,69.72
2022-09-21T07:54:39.036Z,69.46
2022-09-21T07:57:24.341Z,69.94
2022-09-21T07:59:51.234Z,66.86
2022-09-21T08:02:18.127Z,67.41
2022-09-21T08:04:45.330Z,66.20
2022-09-21T08:07:12.656Z,66.63
2022-09-21T08:09:39.311Z,67.27
2022-09-21T08:12:05.978Z,67.43
2022-09-21T08:14:32.736Z,65.95
2022-09-21T08:16:59.296Z,67.13
2022-09-21T08:19:26.729Z,64.48
2022-09-21T08:21:57.536Z,64.14
2022-09-21T08:24:26.952Z,65.35
2022-09-21T08:26:55.865Z,63.90
2022-09-21T08:29:23.946Z,64.89
2022-09-21T08:31:50.851Z,65.03
2022-09-21T08:34:17.551Z,64.40
2022-09-21T08:36:44.169Z,64.35
2022-09-21T08:39:10.967Z,63.83
2022-09-21T08:41:40.943Z,64.55
2022-09-21T08:44:17.074Z,63.82
2022-09-21T08:46:46.988Z,63.48
2022-09-21T08:49:21.549Z,63.72
2022-09-21T08:51:54.629Z,64.32
2022-09-21T08:54:29.246Z,61.32
2022-09-21T08:57:11.757Z,61.54
2022-09-21T08:59:43.210Z,63.48
2022-09-21T09:02:35.746Z,61.50
2022-09-21T09:05:39.835Z,58.91
2022-09-21T09:08:41.907Z,60.27
2022-09-21T09:11:15.033Z,60.77
2022-09-21T09:13:59.890Z,59.63
2022-09-21T09:16:48.070Z,59.11
2022-09-21T09:19:38.681Z,60.11
2022-09-21T09:22:07.826Z,59.35
2022-09-21T09:24:43.944Z,58.21
2022-09-21T09:27:22.778Z,58.13
2022-09-21T09:30:17.047Z,58.10
2022-09-21T09:32:44.075Z,58.65
2022-09-21T09:35:22.377Z,58.17
2022-09-21T09:37:50.859Z,59.51
2022-09-21T09:40:31.004Z,58.12
2022-09-21T09:43:20.603Z,54.95
2022-09-21T09:45:53.101Z,53.99
2022-09-21T09:48:19.730Z,53.88
2022-09-21T09:50:46.691Z,56.70
2022-09-21T09:53:19.226Z,55.72
2022-09-21T09:55:49.760Z,53.13
2022-09-21T09:58:23.203Z,56.65
2022-09-21T10:00:58.350Z,55.31
2022-09-21T10:03:30.174Z,55.77
2022-09-21T10:05:57.003Z,53.71
2022-09-21T10:08:44.854Z,53.82
2022-09-21T10:11:13.554Z,55.55
2022-09-21T10:13:42.801Z,52.82
2022-09-21T10:16:14.665Z,56.45
2022-09-21T10:18:49.458Z,53.00
2022-09-21T10:21:18.030Z,53.11
2022-09-21T10:23:57.454Z,56.23
2022-09-21T10:26:24.403Z,53.52
2022-09-21T10:29:21.865Z,53.67
2022-09-21T10:32:14.837Z,54.48
2022-09-21T10:34:59.841Z,53.67
2022-09-21T10:37:37.495Z,54.08
2022-09-21T10:40:05.765Z,53.99
2022-09-21T10:42:53.950Z,53.44
2022-09-21T10:45:24.717Z,52.07
2022-09-21T10:47:56.249Z,52.27
2022-09-21T10:50:53.225Z,53.13
2022-09-21T10:53:31.807Z,52.58
2022-09-21T10:56:17.337Z,51.84
2022-09-21T10:59:20.680Z,52.38
2022-09-21T11:01:50.303Z,52.72
2022-09-21T11:04:31.066Z,53.03
2022-09-21T11:07:15.428Z,52.58
2022-09-21T11:10:06.810Z,50.33
2022-09-21T11:12:47.446Z,51.98
2022-09-21T11:15:21.864Z,52.13
2022-09-21T11:21:20.355Z,50.77
2022-09-21T11:24:20.062Z,49.51
2022-09-21T11:26:56.331Z,49.23
2022-09-21T11:29:49.353Z,49.88
2022-09-21T11:32:25.225Z,48.96
2022-09-21T11:35:19.919Z,48.93
2022-09-21T11:37:49.698Z,46.88
2022-09-21T11:40:40.650Z,47.55
2022-09-21T11:43:25.783Z,45.74
2022-09-21T11:46:40.726Z,46.95
2022-09-21T11:49:42.617Z,48.24
2022-09-21T11:52:31.332Z,46.46
2022-09-21T11:55:16.058Z,45.87
2022-09-21T11:58:12.817Z,47.25
2022-09-21T12:01:06.058Z,45.94
2022-09-21T12:03:44.972Z,45.52
2022-09-21T12:06:27.178Z,46.45
2022-09-21T12:09:09.517Z,46.29
2022-09-21T12:11:48.702Z,45.24
2022-09-21T12:14:25.227Z,44.60
2022-09-21T12:17:21.289Z,45.79
2022-09-21T12:20:12.267Z,44.79
2022-09-21T12:22:45.698Z,46.01
2022-09-21T12:25:23.916Z,45.17
2022-09-21T12:27:54.050Z,45.63
2022-09-21T12:30:22.838Z,44.73
2022-09-21T12:33:19.312Z,45.86
2022-09-21T12:36:02.409Z,44.34
2022-09-21T12:38:40.972Z,44.86
2022-09-21T12:41:22.975Z,45.35
2022-09-21T12:43:52.147Z,42.76
2022-09-21T12:46:24.168Z,42.84
2022-09-21T12:48:50.880Z,42.68
2022-09-21T12:51:17.443Z,43.12
2022-09-21T12:53:50.930Z,43.17
2022-09-21T12:56:37.537Z,43.43
2022-09-21T12:59:26.046Z,44.47
2022-09-21T13:02:24.639Z,44.11
2022-09-21T13:05:42.524Z,44.49
2022-09-21T13:08:09.035Z,42.54
2022-09-21T13:10:46.151Z,44.46
2022-09-21T13:13:36.662Z,41.66
2022-09-21T13:16:05.636Z,43.16
2022-09-21T13:18:38.756Z,42.08
2022-09-21T13:21:22.089Z,43.69
2022-09-21T13:24:23.700Z,42.43
2022-09-21T13:27:05.198Z,42.83
2022-09-21T13:29:35.017Z,42.58
2022-09-21T13:32:22.050Z,44.17
2022-09-21T13:34:51.632Z,42.57
2022-09-21T13:37:18.163Z,41.55
2022-09-21T13:39:50.744Z,42.08
2022-09-21T13:42:29.585Z,42.40
2022-09-21T13:45:00.192Z,42.16
2022-09-21T13:47:33.946Z,40.55
2022-09-21T13:50:04.599Z,41.04
2022-09-21T13:52:40.236Z,40.54
2022-09-21T13:55:27.990Z,40.55
2022-09-21T13:57:58.944Z,42.25
2022-09-21T14:00:42.691Z,41.33
2022-09-21T14:03:27.240Z,41.80
2022-09-21T14:06:09.230Z,40.83
2022-09-21T14:08:41.888Z,40.81
2022-09-21T14:11:37.281Z,41.30
2022-09-21T14:14:31.784Z,41.63
2022-09-21T14:17:02.744Z,41.38
2022-09-21T14:19:33.253Z,42.36
2022-09-21T14:22:05.879Z,43.49
2022-09-21T14:24:42.075Z,42.40
2022-09-21T14:27:26.045Z,42.53
2022-09-21T14:29:59.925Z,41.83
2022-09-21T14:32:35.520Z,41.46
2022-09-21T14:35:11.049Z,40.92
2022-09-21T14:37:43.250Z,40.79
2022-09-21T14:44:01.317Z,42.26
2022-09-21T14:46:40.430Z,40.81
2022-09-21T14:49:26.747Z,41.68
2022-09-21T14:52:15.303Z,41.43
2022-09-21T14:55:11.939Z,41.29
2022-09-21T14:57:45.736Z,41.47
2022-09-21T15:00:28.625Z,40.61
2022-09-21T15:03:30.560Z,41.28
2022-09-21T15:06:38.370Z,36.56
2022-09-21T15:09:48.832Z,33.23
2022-09-21T15:12:23.505Z,31.31
2022-09-21T15:15:23.556Z,31.81
2022-09-21T15:17:59.873Z,30.07
2022-09-21T15:20:29.527Z,29.94
2022-09-21T15:22:58.574Z,28.99
2022-09-21T15:25:29.056Z,26.28
2022-09-21T15:27:55.753Z,26.88
2022-09-21T15:30:28.726Z,27.20
2022-09-21T15:33:01.018Z,28.47
2022-09-21T15:35:30.703Z,27.97
2022-09-21T15:38:00.933Z,28.00
2022-09-21T15:40:30.212Z,26.96
2022-09-21T15:43:06.541Z,27.01
2022-09-21T15:45:54.784Z,26.96
2022-09-21T15:48:26.591Z,27.15
2022-09-21T15:50:58.970Z,26.53
2022-09-21T15:53:31.147Z,26.16
2022-09-21T15:59:55.126Z,24.48
2022-09-21T16:02:25.436Z,24.21
2022-09-21T16:04:53.770Z,23.68
2022-09-21T16:07:42.405Z,24.37
2022-09-21T16:10:45.175Z,24.00
2022-09-21T16:13:43.137Z,24.11
2022-09-21T16:16:14.185Z,27.58
2022-09-21T16:18:52.316Z,30.20
2022-09-21T16:21:32.500Z,33.81
2022-09-21T16:24:10.928Z,35.69
2022-09-21T16:26:40.050Z,38.29
2022-09-21T16:29:23.688Z,39.71
2022-09-21T16:31:51.240Z,41.58
2022-09-21T16:34:46.066Z,42.81
2022-09-21T16:37:26.909Z,44.12
2022-09-21T16:39:55.663Z,44.66
2022-09-21T16:42:24.132Z,44.53
2022-09-21T16:44:50.811Z,46.00
2022-09-21T16:47:25.263Z,46.63
2022-09-21T16:49:57.097Z,46.63
2022-09-21T16:52:24.806Z,46.92
2022-09-21T16:54:51.894Z,47.45
2022-09-21T16:57:18.828Z,48.29
2022-09-21T16:59:45.475Z,49.00
2022-09-21T17:02:14.461Z,49.42
2022-09-21T17:04:41.396Z,50.23
2022-09-21T17:07:13.639Z,51.40
2022-09-21T17:09:47.681Z,52.58
2022-09-21T17:12:16.940Z,53.42
2022-09-21T17:14:46.969Z,54.79
2022-09-21T17:17:22.877Z,56.55
2022-09-21T17:19:51.958Z,58.23
2022-09-21T17:22:19.329Z,57.89
2022-09-21T17:24:54.926Z,59.69
2022-09-21T17:27:24.371Z,60.77
2022-09-21T17:29:53.772Z,61.55
2022-09-21T17:32:22.598Z,62.00
2022-09-21T17:35:12.519Z,62.89
2022-09-21T17:37:39.176Z,63.77
2022-09-21T17:40:10.656Z,63.53
2022-09-21T17:42:48.387Z,65.02
2022-09-21T17:45:32.567Z,65.60
2022-09-21T17:47:59.643Z,65.24
2022-09-21T17:50:28.147Z,66.04
2022-09-21T17:53:14.839Z,66.31
2022-09-21T17:56:09.406Z,66.62
2022-09-21T17:58:45.434Z,67.36
2022-09-21T18:01:27.360Z,67.35
2022-09-21T18:03:54.285Z,67.71
2022-09-21T18:06:21.979Z,68.59
2022-09-21T18:08:49.204Z,68.53
2022-09-21T18:11:27.426Z,68.34
2022-09-21T18:14:21.895Z,68.12
2022-09-21T18:16:54.482Z,69.08
2022-09-21T18:19:59.814Z,69.44
2022-09-21T18:22:32.337Z,69.49
2022-09-21T18:24:59.123Z,69.69
2022-09-21T18:27:26.123Z,70.22
2022-09-21T18:29:53.090Z,70.39
2022-09-21T18:32:39.725Z,70.61
2022-09-21T18:35:23.876Z,69.80
2022-09-21T18:38:08.723Z,70.95
2022-09-21T18:40:50.509Z,70.62
2022-09-21T18:43:48.491Z,70.64
2022-09-21T18:46:41.630Z,70.68
2022-09-21T18:49:35.799Z,71.23
2022-09-21T18:52:28.652Z,71.50
2022-09-21T18:54:55.430Z,71.30
2022-09-21T18:57:23.506Z,71.45
2022-09-21T18:59:50.504Z,71.73
2022-09-21T19:02:20.355Z,72.89
2022-09-21T19:04:48.976Z,73.21
2022-09-21T19:07:18.526Z,73.14
2022-09-21T19:09:52.134Z,72.89
2022-09-21T19:12:31.858Z,73.33
2022-09-21T19:15:56.074Z,73.05
2022-09-21T19:18:46.342Z,72.72
2022-09-21T19:21:28.201Z,72.40
2022-09-21T19:24:07.020Z,73.26
2022-09-21T19:26:59.437Z,72.79
2022-09-21T19:29:50.442Z,73.32
2022-09-21T19:32:32.532Z,73.49
2022-09-21T19:35:15.220Z,73.63
2022-09-21T19:37:41.893Z,73.97
2022-09-21T19:40:09.213Z,73.74
2022-09-21T19:42:56.347Z,73.70
2022-09-21T19:45:32.882Z,72.86
2022-09-21T19:48:04.803Z,73.38
2022-09-21T19:50:46.906Z,73.76
2022-09-21T19:53:33.075Z,75.15
2022-09-21T19:56:24.286Z,74.29
2022-09-21T19:59:09.858Z,74.74
2022-09-21T20:01:40.265Z,75.51
2022-09-21T20:04:07.746Z,75.20
2022-09-21T20:06:44.025Z,75.49
2022-09-21T20:09:24.580Z,75.19
2022-09-21T20:12:21.515Z,74.90
2022-09-21T20:14:53.961Z,75.22
2022-09-21T20:17:36.698Z,74.67
2022-09-21T20:20:13.770Z,75.03
2022-09-21T20:22:41.069Z,73.79
2022-09-21T20:25:24.244Z,72.91
2022-09-21T20:27:58.563Z,73.66
2022-09-21T20:30:28.552Z,73.30
2022-09-21T20:32:59.944Z,72.26
2022-09-21T20:35:29.691Z,72.54
2022-09-21T20:38:01.938Z,72.10
2022-09-21T20:40:29.385Z,72.04
2022-09-21T20:42:57.458Z,71.67
2022-09-21T20:45:24.894Z,71.23
2022-09-21T20:47:54.351Z,69.75
2022-09-21T20:50:22.323Z,70.91
2022-09-21T20:52:49.053Z,70.29
2022-09-21T20:55:17.643Z,69.27
2022-09-21T20:57:44.797Z,69.49
2022-09-21T21:00:14.707Z,68.99
2022-09-21T21:02:41.766Z,69.35
2022-09-21T21:10:34.368Z,69.73
2022-09-21T21:13:04.569Z,70.06
2022-09-21T21:15:32.080Z,69.67
2022-09-21T21:17:58.771Z,69.42
2022-09-21T21:20:26.168Z,69.58
2022-09-21T21:22:53.878Z,69.41
2022-09-21T21:25:20.590Z,69.91
2022-09-21T21:27:47.229Z,68.75
2022-09-21T21:30:14.007Z,69.26
2022-09-21T21:32:40.925Z,69.00
2022-09-21T21:35:08.057Z,68.92
2022-09-21T21:37:34.683Z,68.30
2022-09-21T21:40:02.320Z,68.75
2022-09-21T21:42:29.613Z,69.06
2022-09-21T21:44:56.501Z,68.34
2022-09-21T21:47:40.203Z,68.49
2022-09-21T21:50:09.333Z,68.41
2022-09-21T21:52:35.954Z,68.62
2022-09-21T21:55:02.621Z,68.29
2022-09-21T21:57:29.321Z,68.25
2022-09-21T21:59:55.919Z,68.02
2022-09-21T22:02:22.677Z,67.90
2022-09-21T22:04:49.351Z,67.63
2022-09-21T22:07:15.919Z,67.60
2022-09-21T22:09:42.478Z,68.25
2022-09-21T22:12:09.146Z,68.44
2022-09-21T22:14:35.858Z,67.99
2022-09-21T22:17:02.688Z,68.02
2022-09-21T22:19:29.516Z,68.42
2022-09-21T22:21:56.188Z,68.54
2022-09-21T22:24:23.013Z,68.33
2022-09-21T22:26:50.055Z,68.31
2022-09-21T22:29:17.507Z,67.92
2022-09-21T22:31:49.511Z,67.90
2022-09-21T22:34:16.867Z,68.18
2022-09-21T22:36:43.926Z,68.01
2022-09-21T22:39:11.211Z,68.29
2022-09-21T22:41:40.232Z,67.95
2022-09-21T22:44:07.938Z,68.54
2022-09-21T22:46:34.931Z,68.53
2022-09-21T22:49:02.171Z,68.36
2022-09-21T22:51:29.653Z,68.38
2022-09-21T22:53:56.567Z,68.26
2022-09-21T22:56:26.387Z,68.19
2022-09-21T22:58:55.414Z,68.57
2022-09-21T23:01:26.429Z,68.55
2022-09-21T23:03:56.555Z,68.35
2022-09-21T23:06:26.725Z,68.51
2022-09-21T23:08:56.268Z,68.70
2022-09-21T23:11:29.070Z,69.37
2022-09-21T23:13:56.784Z,69.39
2022-09-21T23:16:24.947Z,69.30
2022-09-21T23:18:52.290Z,69.47
2022-09-21T23:21:22.497Z,69.91
2022-09-21T23:23:49.659Z,69.38
2022-09-21T23:26:19.214Z,69.59
2022-09-21T23:28:52.313Z,69.89
2022-09-21T23:31:19.307Z,70.49
2022-09-21T23:33:51.588Z,70.15
2022-09-21T23:36:21.113Z,69.98
2022-09-21T23:38:49.188Z,70.30
2022-09-21T23:41:27.571Z,70.12
2022-09-21T23:43:54.859Z,69.94
2022-09-21T23:46:24.676Z,70.19
2022-09-21T23:48:51.816Z,69.90
2022-09-21T23:51:19.813Z,69.95
2022-09-21T23:53:47.445Z,70.26
2022-09-21T23:56:19.821Z,70.47
2022-09-21T23:58:47.138Z,70.87
